ASA1411 KSEA-KLAX
Flight info
| Callsign | ASA1411 |
|---|---|
| Flight time | N/A |
| Altitude | 37000 |
| Route | SUMMA2 SUMMA JINMO Q7 JAGWA BURGL IRNMN2 |
| Aircraft | B738/M-SDGIRW/LB1 |
Departure
| Time | 2026-05-05 23:17 |
|---|---|
| Airport | Seattle–Tacoma International Airport (KSEA) |
Arrival
| Time | N/A |
|---|---|
| Airport | Los Angeles International Airport (KLAX) |
| Time | Latitude | Longitude | Altitude | Speed | Heading |
|---|---|---|---|---|---|
| 2026-05-05 22:33 | 47.44768 | -122.30229 | 408 ft | 0 kts | 27° |
| 2026-05-05 22:53 | 47.44766 | -122.30230 | 408 ft | 2 kts | 27° |
| 2026-05-05 22:53 | 47.44745 | -122.30249 | 407 ft | 4 kts | 36° |
| 2026-05-05 22:54 | 47.44725 | -122.30272 | 405 ft | 4 kts | 62° |
| 2026-05-05 22:54 | 47.44723 | -122.30304 | 406 ft | 4 kts | 120° |
| 2026-05-05 22:54 | 47.44733 | -122.30327 | 406 ft | 1 kts | 130° |
| 2026-05-05 22:54 | 47.44735 | -122.30330 | 406 ft | 1 kts | 130° |
| 2026-05-05 22:56 | 47.44734 | -122.30329 | 403 ft | 1 kts | 130° |
| 2026-05-05 22:56 | 47.44727 | -122.30316 | 405 ft | 3 kts | 130° |
| 2026-05-05 22:56 | 47.44715 | -122.30295 | 405 ft | 3 kts | 130° |
| 2026-05-05 22:57 | 47.44700 | -122.30267 | 405 ft | 5 kts | 127° |
| 2026-05-05 22:57 | 47.44678 | -122.30195 | 402 ft | 9 kts | 103° |
| 2026-05-05 22:57 | 47.44689 | -122.30102 | 405 ft | 9 kts | 64° |
| 2026-05-05 22:57 | 47.44732 | -122.30029 | 403 ft | 10 kts | 37° |
| 2026-05-05 22:58 | 47.44793 | -122.29988 | 406 ft | 10 kts | 12° |
| 2026-05-05 22:58 | 47.44872 | -122.30009 | 408 ft | 13 kts | 329° |
| 2026-05-05 22:58 | 47.44936 | -122.30100 | 407 ft | 13 kts | 310° |
| 2026-05-05 22:58 | 47.45006 | -122.30221 | 411 ft | 16 kts | 310° |
| 2026-05-05 22:59 | 47.45043 | -122.30367 | 410 ft | 15 kts | 272° |
| 2026-05-05 22:59 | 47.45045 | -122.30523 | 409 ft | 15 kts | 270° |
| 2026-05-05 22:59 | 47.45074 | -122.30624 | 409 ft | 11 kts | 344° |
| 2026-05-05 22:59 | 47.45166 | -122.30625 | 408 ft | 14 kts | 0° |
| 2026-05-05 23:00 | 47.45397 | -122.30624 | 423 ft | 16 kts | 0° |
| 2026-05-05 23:00 | 47.45525 | -122.30623 | 424 ft | 22 kts | 0° |
| 2026-05-05 23:00 | 47.45676 | -122.30621 | 429 ft | 21 kts | 0° |
| 2026-05-05 23:01 | 47.45823 | -122.30621 | 437 ft | 21 kts | 0° |
| 2026-05-05 23:01 | 47.45967 | -122.30618 | 434 ft | 20 kts | 0° |
| 2026-05-05 23:01 | 47.46107 | -122.30617 | 440 ft | 20 kts | 0° |
| 2026-05-05 23:01 | 47.46241 | -122.30616 | 440 ft | 19 kts | 0° |
| 2026-05-05 23:02 | 47.46335 | -122.30617 | 436 ft | 6 kts | 350° |
| 2026-05-05 23:02 | 47.46361 | -122.30636 | 442 ft | 0 kts | 320° |
| 2026-05-05 23:05 | 47.46362 | -122.30637 | 442 ft | 1 kts | 320° |
| 2026-05-05 23:05 | 47.46373 | -122.30721 | 436 ft | 15 kts | 246° |
| 2026-05-05 23:05 | 47.46321 | -122.30776 | 430 ft | 3 kts | 183° |
| 2026-05-05 23:06 | 47.46259 | -122.30778 | 437 ft | 40 kts | 181° |
| 2026-05-05 23:06 | 47.45685 | -122.30787 | 418 ft | 121 kts | 185° |
| 2026-05-05 23:06 | 47.44970 | -122.30790 | 408 ft | 75 kts | 180° |
| 2026-05-05 23:06 | 47.44685 | -122.30792 | 398 ft | 14 kts | 180° |
| 2026-05-05 23:07 | 47.44600 | -122.30757 | 397 ft | 9 kts | 128° |
| 2026-05-05 23:07 | 47.44598 | -122.30676 | 398 ft | 7 kts | 64° |
| 2026-05-05 23:07 | 47.44604 | -122.30663 | 398 ft | 0 kts | 52° |
| 2026-05-05 23:13 | 47.44605 | -122.30661 | 397 ft | 3 kts | 51° |
| 2026-05-05 23:13 | 47.44675 | -122.30630 | 401 ft | 15 kts | 0° |
| 2026-05-05 23:13 | 47.44778 | -122.30629 | 403 ft | 15 kts | 0° |
| 2026-05-05 23:14 | 47.44890 | -122.30629 | 407 ft | 16 kts | 0° |
| 2026-05-05 23:14 | 47.45003 | -122.30628 | 411 ft | 18 kts | 0° |
| 2026-05-05 23:14 | 47.45129 | -122.30626 | 407 ft | 18 kts | 0° |
| 2026-05-05 23:14 | 47.45258 | -122.30625 | 417 ft | 22 kts | 0° |
| 2026-05-05 23:15 | 47.45360 | -122.30624 | 422 ft | 22 kts | 0° |
| 2026-05-05 23:15 | 47.45508 | -122.30623 | 427 ft | 23 kts | 0° |
| 2026-05-05 23:15 | 47.45674 | -122.30621 | 428 ft | 23 kts | 0° |
| 2026-05-05 23:15 | 47.45834 | -122.30619 | 429 ft | 23 kts | 0° |
| 2026-05-05 23:16 | 47.45993 | -122.30618 | 437 ft | 25 kts | 0° |
| 2026-05-05 23:16 | 47.46162 | -122.30617 | 434 ft | 24 kts | 0° |
| 2026-05-05 23:16 | 47.46322 | -122.30616 | 441 ft | 21 kts | 356° |
| 2026-05-05 23:16 | 47.46367 | -122.30728 | 440 ft | 17 kts | 239° |
| 2026-05-05 23:17 | 47.46179 | -122.30779 | 425 ft | 59 kts | 180° |
| 2026-05-05 23:17 | 47.45494 | -122.30784 | 418 ft | 135 kts | 180° |
| 2026-05-05 23:17 | 47.44381 | -122.30787 | 660 ft | 175 kts | 181° |
| 2026-05-05 23:17 | 47.43111 | -122.30762 | 1380 ft | 188 kts | 181° |
| 2026-05-05 23:18 | 47.41814 | -122.30717 | 2417 ft | 185 kts | 180° |
| 2026-05-05 23:18 | 47.40500 | -122.30664 | 3239 ft | 194 kts | 179° |
| 2026-05-05 23:18 | 47.39100 | -122.30668 | 3716 ft | 212 kts | 182° |
| 2026-05-05 23:18 | 47.37588 | -122.30729 | 4153 ft | 221 kts | 183° |
| 2026-05-05 23:19 | 47.36038 | -122.30775 | 4679 ft | 225 kts | 182° |
| 2026-05-05 23:19 | 47.34471 | -122.30809 | 5276 ft | 226 kts | 182° |
| 2026-05-05 23:19 | 47.32888 | -122.30838 | 5855 ft | 228 kts | 182° |
| 2026-05-05 23:19 | 47.31300 | -122.30867 | 6431 ft | 229 kts | 182° |
| 2026-05-05 23:20 | 47.29693 | -122.30892 | 6925 ft | 234 kts | 182° |
| 2026-05-05 23:20 | 47.28070 | -122.30922 | 7467 ft | 234 kts | 182° |
| 2026-05-05 23:20 | 47.26417 | -122.30950 | 7833 ft | 245 kts | 182° |
| 2026-05-05 23:20 | 47.24634 | -122.30927 | 8027 ft | 264 kts | 174° |
| 2026-05-05 23:21 | 47.22830 | -122.30236 | 8490 ft | 271 kts | 163° |
| 2026-05-05 23:21 | 47.21033 | -122.29343 | 9045 ft | 274 kts | 162° |
| 2026-05-05 23:21 | 47.19221 | -122.28420 | 9583 ft | 277 kts | 162° |
| 2026-05-05 23:21 | 47.17375 | -122.27469 | 10010 ft | 290 kts | 161° |
| 2026-05-05 23:22 | 47.15392 | -122.26439 | 10199 ft | 315 kts | 161° |
| 2026-05-05 23:22 | 47.13249 | -122.25327 | 10431 ft | 337 kts | 161° |
| 2026-05-05 23:22 | 47.11024 | -122.24171 | 10981 ft | 347 kts | 161° |
| 2026-05-05 23:22 | 47.08736 | -122.22979 | 11702 ft | 351 kts | 160° |
| 2026-05-05 23:23 | 47.06419 | -122.21774 | 12446 ft | 356 kts | 160° |
| 2026-05-05 23:23 | 47.04062 | -122.20547 | 13171 ft | 359 kts | 160° |
| 2026-05-05 23:23 | 47.01682 | -122.19311 | 13802 ft | 367 kts | 160° |
| 2026-05-05 23:23 | 46.99261 | -122.18053 | 14491 ft | 372 kts | 159° |
| 2026-05-05 23:24 | 46.96808 | -122.16782 | 15171 ft | 376 kts | 159° |
| 2026-05-05 23:24 | 46.94312 | -122.15488 | 15804 ft | 382 kts | 159° |
| 2026-05-05 23:24 | 46.91783 | -122.14186 | 16423 ft | 387 kts | 159° |
| 2026-05-05 23:24 | 46.89262 | -122.12886 | 17019 ft | 392 kts | 159° |
| 2026-05-05 23:25 | 46.86663 | -122.11549 | 17608 ft | 397 kts | 159° |
| 2026-05-05 23:25 | 46.84042 | -122.10200 | 18186 ft | 402 kts | 158° |
| 2026-05-05 23:25 | 46.81380 | -122.08829 | 18782 ft | 407 kts | 158° |
| 2026-05-05 23:25 | 46.78704 | -122.07456 | 19382 ft | 409 kts | 158° |
| 2026-05-05 23:26 | 46.76004 | -122.06070 | 19908 ft | 414 kts | 158° |
| 2026-05-05 23:26 | 46.73271 | -122.04667 | 20454 ft | 418 kts | 158° |
| 2026-05-05 23:26 | 46.70520 | -122.03257 | 21000 ft | 421 kts | 158° |
| 2026-05-05 23:26 | 46.67739 | -122.01833 | 21541 ft | 425 kts | 158° |
| 2026-05-05 23:27 | 46.64932 | -122.00411 | 22047 ft | 429 kts | 161° |
| 2026-05-05 23:27 | 46.61971 | -121.99692 | 22459 ft | 437 kts | 180° |
| 2026-05-05 23:27 | 46.58954 | -122.00251 | 22866 ft | 441 kts | 198° |
| 2026-05-05 23:27 | 46.56060 | -122.01763 | 23393 ft | 441 kts | 203° |
| 2026-05-05 23:28 | 46.53210 | -122.03427 | 23920 ft | 442 kts | 204° |
| 2026-05-05 23:28 | 46.50349 | -122.05108 | 24356 ft | 445 kts | 203° |
| 2026-05-05 23:28 | 46.47449 | -122.06771 | 24787 ft | 449 kts | 203° |
| 2026-05-05 23:28 | 46.44521 | -122.08410 | 25235 ft | 452 kts | 202° |
| 2026-05-05 23:29 | 46.41576 | -122.10032 | 25710 ft | 454 kts | 201° |
| 2026-05-05 23:29 | 46.38524 | -122.11261 | 26135 ft | 458 kts | 190° |
| 2026-05-05 23:29 | 46.35347 | -122.11734 | 26531 ft | 461 kts | 181° |
| 2026-05-05 23:29 | 46.32140 | -122.11489 | 26882 ft | 463 kts | 171° |
| 2026-05-05 23:30 | 46.28992 | -122.10758 | 27262 ft | 465 kts | 169° |
| 2026-05-05 23:30 | 46.25800 | -122.09947 | 27609 ft | 467 kts | 169° |
| 2026-05-05 23:30 | 46.22593 | -122.09116 | 27953 ft | 470 kts | 169° |
| 2026-05-05 23:30 | 46.19359 | -122.08289 | 28308 ft | 472 kts | 169° |
| 2026-05-05 23:31 | 46.16115 | -122.07479 | 28675 ft | 474 kts | 169° |
| 2026-05-05 23:31 | 46.12851 | -122.06681 | 29029 ft | 476 kts | 169° |
| 2026-05-05 23:31 | 46.09582 | -122.05894 | 29371 ft | 478 kts | 170° |
| 2026-05-05 23:31 | 46.06289 | -122.05113 | 29719 ft | 479 kts | 170° |
| 2026-05-05 23:32 | 46.02997 | -122.04334 | 30035 ft | 481 kts | 170° |
| 2026-05-05 23:32 | 45.99681 | -122.03552 | 30320 ft | 483 kts | 170° |
| 2026-05-05 23:32 | 45.96350 | -122.02760 | 30587 ft | 485 kts | 170° |
| 2026-05-05 23:32 | 45.93010 | -122.01971 | 30860 ft | 488 kts | 170° |
| 2026-05-05 23:33 | 45.89650 | -122.01175 | 31100 ft | 489 kts | 170° |
| 2026-05-05 23:33 | 45.86282 | -122.00377 | 31334 ft | 492 kts | 170° |
| 2026-05-05 23:33 | 45.82908 | -121.99584 | 31680 ft | 491 kts | 170° |
| 2026-05-05 23:33 | 45.79545 | -121.98791 | 32118 ft | 488 kts | 170° |
| 2026-05-05 23:34 | 45.76195 | -121.98003 | 32512 ft | 487 kts | 170° |
| 2026-05-05 23:34 | 45.72857 | -121.97221 | 32837 ft | 486 kts | 170° |
| 2026-05-05 23:34 | 45.69522 | -121.96434 | 33112 ft | 487 kts | 169° |
| 2026-05-05 23:34 | 45.66173 | -121.95642 | 33377 ft | 487 kts | 169° |
| 2026-05-05 23:35 | 45.62874 | -121.94865 | 33673 ft | 486 kts | 170° |
| 2026-05-05 23:35 | 45.59538 | -121.94086 | 34009 ft | 484 kts | 169° |
| 2026-05-05 23:35 | 45.56209 | -121.93311 | 34300 ft | 483 kts | 170° |
| 2026-05-05 23:35 | 45.52880 | -121.92534 | 34525 ft | 485 kts | 169° |
| 2026-05-05 23:36 | 45.49549 | -121.91754 | 34771 ft | 485 kts | 169° |
| 2026-05-05 23:36 | 45.46215 | -121.90971 | 35000 ft | 486 kts | 169° |
| 2026-05-05 23:36 | 45.42874 | -121.90192 | 35190 ft | 487 kts | 169° |
| 2026-05-05 23:36 | 45.39518 | -121.89413 | 35423 ft | 489 kts | 169° |
| 2026-05-05 23:37 | 45.36172 | -121.88642 | 35732 ft | 486 kts | 169° |
| 2026-05-05 23:37 | 45.32823 | -121.87866 | 35942 ft | 487 kts | 169° |
| 2026-05-05 23:37 | 45.29470 | -121.87085 | 36109 ft | 488 kts | 169° |
| 2026-05-05 23:37 | 45.26107 | -121.86307 | 36321 ft | 489 kts | 169° |
| 2026-05-05 23:38 | 45.22745 | -121.85526 | 36542 ft | 489 kts | 169° |
| 2026-05-05 23:38 | 45.19384 | -121.84748 | 36775 ft | 489 kts | 169° |
| 2026-05-05 23:38 | 45.16077 | -121.83983 | 37025 ft | 487 kts | 169° |
| 2026-05-05 23:38 | 45.12709 | -121.83206 | 36991 ft | 490 kts | 169° |
| 2026-05-05 23:39 | 45.06005 | -121.81675 | 36998 ft | 483 kts | 169° |
| 2026-05-05 23:39 | 44.99425 | -121.80171 | 37009 ft | 477 kts | 169° |
| 2026-05-05 23:40 | 44.92912 | -121.78670 | 37020 ft | 477 kts | 169° |
| 2026-05-05 23:40 | 44.86343 | -121.77176 | 37012 ft | 478 kts | 169° |
| 2026-05-05 23:41 | 44.79748 | -121.75671 | 37001 ft | 480 kts | 169° |
| 2026-05-05 23:41 | 44.73147 | -121.74171 | 37000 ft | 481 kts | 169° |
| 2026-05-05 23:42 | 44.66577 | -121.72669 | 37001 ft | 482 kts | 169° |
| 2026-05-05 23:42 | 44.59959 | -121.71190 | 37002 ft | 481 kts | 169° |
| 2026-05-05 23:43 | 44.53332 | -121.69685 | 36998 ft | 482 kts | 169° |
| 2026-05-05 23:43 | 44.46702 | -121.68190 | 36994 ft | 483 kts | 169° |
| 2026-05-05 23:44 | 44.40059 | -121.66710 | 36987 ft | 483 kts | 168° |
| 2026-05-05 23:44 | 44.33429 | -121.65219 | 36987 ft | 482 kts | 169° |
| 2026-05-05 23:45 | 44.26869 | -121.63717 | 37024 ft | 479 kts | 168° |
| 2026-05-05 23:45 | 44.20289 | -121.62187 | 37020 ft | 477 kts | 168° |
| 2026-05-05 23:46 | 44.13752 | -121.60656 | 37019 ft | 475 kts | 168° |
| 2026-05-05 23:46 | 44.07237 | -121.59134 | 37022 ft | 474 kts | 168° |
| 2026-05-05 23:47 | 44.00724 | -121.57643 | 37041 ft | 474 kts | 168° |
| 2026-05-05 23:47 | 43.94197 | -121.56149 | 37036 ft | 475 kts | 168° |
| 2026-05-05 23:48 | 43.87709 | -121.54666 | 37053 ft | 475 kts | 168° |
| 2026-05-05 23:48 | 43.81179 | -121.53163 | 37059 ft | 476 kts | 168° |
| 2026-05-05 23:49 | 43.74622 | -121.51664 | 37063 ft | 478 kts | 168° |
| 2026-05-05 23:49 | 43.68055 | -121.50168 | 37057 ft | 478 kts | 168° |
| 2026-05-05 23:50 | 43.61482 | -121.48680 | 37061 ft | 480 kts | 168° |
| 2026-05-05 23:50 | 43.54897 | -121.47182 | 37049 ft | 481 kts | 168° |
| 2026-05-05 23:51 | 43.48286 | -121.45686 | 37041 ft | 481 kts | 168° |
| 2026-05-05 23:51 | 43.41669 | -121.44187 | 37036 ft | 482 kts | 168° |
| 2026-05-05 23:52 | 43.35045 | -121.42697 | 37026 ft | 482 kts | 168° |
| 2026-05-05 23:52 | 43.28478 | -121.41225 | 37051 ft | 480 kts | 167° |
| 2026-05-05 23:53 | 43.21873 | -121.39734 | 37021 ft | 481 kts | 168° |
| 2026-05-05 23:53 | 43.15267 | -121.38252 | 37028 ft | 481 kts | 167° |
| 2026-05-05 23:54 | 43.08666 | -121.36774 | 37023 ft | 480 kts | 167° |
| 2026-05-05 23:54 | 43.02070 | -121.35314 | 37031 ft | 480 kts | 167° |
| 2026-05-05 23:55 | 42.95482 | -121.33837 | 37000 ft | 480 kts | 167° |
| 2026-05-05 23:55 | 42.88919 | -121.32379 | 37002 ft | 481 kts | 167° |
| 2026-05-05 23:56 | 42.82318 | -121.30931 | 37009 ft | 479 kts | 167° |
| 2026-05-05 23:56 | 42.75735 | -121.29460 | 37010 ft | 479 kts | 167° |
| 2026-05-05 23:57 | 42.69149 | -121.28013 | 37005 ft | 480 kts | 167° |
| 2026-05-05 23:57 | 42.62554 | -121.26562 | 37001 ft | 480 kts | 167° |
| 2026-05-05 23:58 | 42.55962 | -121.25114 | 36996 ft | 479 kts | 167° |
| 2026-05-05 23:58 | 42.49412 | -121.23689 | 36996 ft | 480 kts | 167° |
| 2026-05-05 23:59 | 42.42815 | -121.22244 | 37010 ft | 480 kts | 167° |
| 2026-05-05 23:59 | 42.36214 | -121.20799 | 37025 ft | 480 kts | 167° |
| 2026-05-06 00:00 | 42.29593 | -121.19361 | 36998 ft | 482 kts | 167° |
| 2026-05-06 00:00 | 42.22974 | -121.17930 | 37011 ft | 481 kts | 167° |
| 2026-05-06 00:01 | 42.16397 | -121.16502 | 36995 ft | 481 kts | 167° |
| 2026-05-06 00:01 | 42.09772 | -121.15072 | 36995 ft | 482 kts | 167° |
| 2026-05-06 00:02 | 42.04263 | -121.13873 | 36988 ft | 482 kts | 167° |
| 2026-05-06 00:02 | 41.97640 | -121.12450 | 36986 ft | 481 kts | 167° |
| 2026-05-06 00:03 | 41.91049 | -121.11033 | 36983 ft | 478 kts | 166° |
| 2026-05-06 00:03 | 41.84474 | -121.09620 | 36992 ft | 477 kts | 166° |
| 2026-05-06 00:04 | 41.77928 | -121.08227 | 36992 ft | 476 kts | 166° |
| 2026-05-06 00:04 | 41.71384 | -121.06821 | 36983 ft | 476 kts | 166° |
| 2026-05-06 00:05 | 41.61559 | -121.04740 | 36987 ft | 476 kts | 166° |
| 2026-05-06 00:06 | 41.55001 | -121.03341 | 36991 ft | 478 kts | 166° |
| 2026-05-06 00:06 | 41.48440 | -121.01942 | 36993 ft | 477 kts | 166° |
| 2026-05-06 00:07 | 41.41870 | -121.00551 | 36986 ft | 478 kts | 166° |
| 2026-05-06 00:07 | 41.35294 | -120.99161 | 36987 ft | 479 kts | 166° |
| 2026-05-06 00:08 | 41.28711 | -120.97779 | 36989 ft | 479 kts | 166° |
| 2026-05-06 00:08 | 41.22173 | -120.96400 | 36984 ft | 478 kts | 166° |
| 2026-05-06 00:09 | 41.15582 | -120.95015 | 36974 ft | 479 kts | 166° |
| 2026-05-06 00:09 | 41.08994 | -120.93638 | 36975 ft | 479 kts | 167° |
| 2026-05-06 00:10 | 41.02408 | -120.92265 | 36973 ft | 479 kts | 167° |
| 2026-05-06 00:10 | 40.95752 | -120.91293 | 36982 ft | 483 kts | 173° |
| 2026-05-06 00:11 | 40.89025 | -120.90806 | 36950 ft | 484 kts | 173° |
| 2026-05-06 00:11 | 40.82338 | -120.90343 | 36966 ft | 485 kts | 173° |
| 2026-05-06 00:12 | 40.75571 | -120.89832 | 36985 ft | 487 kts | 173° |
| 2026-05-06 00:12 | 40.68813 | -120.89300 | 36980 ft | 486 kts | 173° |
| 2026-05-06 00:13 | 40.62073 | -120.88749 | 36949 ft | 486 kts | 172° |
| 2026-05-06 00:13 | 40.55314 | -120.88214 | 36968 ft | 486 kts | 172° |
| 2026-05-06 00:14 | 40.48604 | -120.87682 | 36975 ft | 486 kts | 173° |
| 2026-05-06 00:14 | 40.41860 | -120.87147 | 36971 ft | 485 kts | 173° |
| 2026-05-06 00:15 | 40.35131 | -120.86619 | 36972 ft | 484 kts | 172° |
| 2026-05-06 00:15 | 40.28401 | -120.86089 | 36962 ft | 484 kts | 172° |
| 2026-05-06 00:16 | 40.21662 | -120.85561 | 36973 ft | 485 kts | 172° |
| 2026-05-06 00:16 | 40.14916 | -120.85026 | 36993 ft | 486 kts | 172° |
| 2026-05-06 00:17 | 40.08173 | -120.84503 | 36988 ft | 484 kts | 172° |
| 2026-05-06 00:17 | 40.01430 | -120.83968 | 36992 ft | 486 kts | 172° |
| 2026-05-06 00:18 | 39.94719 | -120.83442 | 37000 ft | 486 kts | 172° |
| 2026-05-06 00:18 | 39.87974 | -120.82917 | 37007 ft | 486 kts | 172° |
| 2026-05-06 00:19 | 39.81216 | -120.82396 | 37009 ft | 486 kts | 172° |
| 2026-05-06 00:19 | 39.74467 | -120.81884 | 37016 ft | 486 kts | 172° |
| 2026-05-06 00:20 | 39.67721 | -120.81363 | 37043 ft | 484 kts | 172° |
| 2026-05-06 00:20 | 39.60995 | -120.80838 | 37037 ft | 483 kts | 172° |
| 2026-05-06 00:21 | 39.54277 | -120.80321 | 37057 ft | 483 kts | 172° |
| 2026-05-06 00:21 | 39.47565 | -120.79803 | 37065 ft | 483 kts | 172° |
| 2026-05-06 00:22 | 39.40854 | -120.79294 | 37068 ft | 483 kts | 172° |
| 2026-05-06 00:22 | 39.34145 | -120.78778 | 37074 ft | 483 kts | 172° |
| 2026-05-06 00:23 | 39.27477 | -120.78274 | 37074 ft | 484 kts | 171° |
| 2026-05-06 00:23 | 39.20758 | -120.77758 | 37083 ft | 482 kts | 171° |
| 2026-05-06 00:24 | 39.14059 | -120.77236 | 37079 ft | 482 kts | 171° |
| 2026-05-06 00:24 | 39.07354 | -120.76724 | 37080 ft | 483 kts | 171° |
| 2026-05-06 00:25 | 39.00647 | -120.76218 | 37073 ft | 483 kts | 171° |
| 2026-05-06 00:25 | 38.93939 | -120.75710 | 37066 ft | 482 kts | 171° |
| 2026-05-06 00:26 | 38.87245 | -120.75207 | 37078 ft | 481 kts | 171° |
| 2026-05-06 00:26 | 38.80556 | -120.74707 | 37076 ft | 482 kts | 171° |
| 2026-05-06 00:27 | 38.73857 | -120.74203 | 37092 ft | 481 kts | 171° |
| 2026-05-06 00:27 | 38.67212 | -120.73697 | 37086 ft | 482 kts | 171° |
| 2026-05-06 00:28 | 38.60515 | -120.73193 | 37073 ft | 481 kts | 171° |
| 2026-05-06 00:28 | 38.53840 | -120.72700 | 37091 ft | 480 kts | 171° |
| 2026-05-06 00:29 | 38.47168 | -120.72196 | 37067 ft | 480 kts | 171° |
| 2026-05-06 00:29 | 38.40491 | -120.71699 | 37075 ft | 480 kts | 171° |
| 2026-05-06 00:30 | 38.33815 | -120.71191 | 37080 ft | 480 kts | 171° |
| 2026-05-06 00:30 | 38.27137 | -120.70713 | 37083 ft | 481 kts | 171° |
| 2026-05-06 00:31 | 38.20470 | -120.70209 | 37065 ft | 480 kts | 171° |
| 2026-05-06 00:31 | 38.13836 | -120.69723 | 37079 ft | 481 kts | 171° |
| 2026-05-06 00:32 | 38.07156 | -120.69235 | 37077 ft | 480 kts | 171° |
| 2026-05-06 00:32 | 38.00477 | -120.68740 | 37074 ft | 480 kts | 171° |
| 2026-05-06 00:33 | 37.93799 | -120.68245 | 37077 ft | 481 kts | 171° |
| 2026-05-06 00:33 | 37.87103 | -120.67754 | 37061 ft | 481 kts | 171° |
| 2026-05-06 00:34 | 37.80411 | -120.67257 | 37061 ft | 481 kts | 171° |
| 2026-05-06 00:34 | 37.73737 | -120.66766 | 37052 ft | 480 kts | 171° |
| 2026-05-06 00:35 | 37.67082 | -120.66281 | 37054 ft | 478 kts | 171° |
| 2026-05-06 00:35 | 37.60440 | -120.65801 | 37052 ft | 477 kts | 171° |
| 2026-05-06 00:36 | 37.53847 | -120.65316 | 37049 ft | 476 kts | 171° |
| 2026-05-06 00:36 | 37.47224 | -120.64834 | 37051 ft | 476 kts | 171° |
| 2026-05-06 00:37 | 37.40606 | -120.64346 | 37048 ft | 476 kts | 171° |
| 2026-05-06 00:37 | 37.33979 | -120.63854 | 37045 ft | 475 kts | 169° |
| 2026-05-06 00:38 | 37.27640 | -120.62215 | 37053 ft | 465 kts | 159° |
| 2026-05-06 00:38 | 37.21387 | -120.60110 | 37051 ft | 466 kts | 159° |
| 2026-05-06 00:39 | 37.15125 | -120.58011 | 37046 ft | 466 kts | 159° |
| 2026-05-06 00:39 | 37.08839 | -120.55963 | 37050 ft | 466 kts | 159° |
| 2026-05-06 00:40 | 37.02553 | -120.53927 | 37054 ft | 465 kts | 160° |
| 2026-05-06 00:40 | 36.96279 | -120.51912 | 37041 ft | 465 kts | 160° |
| 2026-05-06 00:41 | 36.90044 | -120.49911 | 37058 ft | 465 kts | 159° |
| 2026-05-06 00:41 | 36.83761 | -120.47882 | 37046 ft | 466 kts | 160° |
| 2026-05-06 00:42 | 36.77478 | -120.45859 | 37044 ft | 466 kts | 160° |
| 2026-05-06 00:42 | 36.71212 | -120.43841 | 37044 ft | 466 kts | 160° |
| 2026-05-06 00:43 | 36.64926 | -120.41829 | 37040 ft | 466 kts | 160° |
| 2026-05-06 00:43 | 36.58643 | -120.39820 | 37049 ft | 467 kts | 160° |
| 2026-05-06 00:44 | 36.52340 | -120.37815 | 37048 ft | 467 kts | 161° |
| 2026-05-06 00:44 | 36.46031 | -120.35810 | 37050 ft | 467 kts | 160° |
| 2026-05-06 00:45 | 36.39727 | -120.33808 | 37045 ft | 468 kts | 160° |
| 2026-05-06 00:45 | 36.33421 | -120.31806 | 37045 ft | 467 kts | 161° |
| 2026-05-06 00:46 | 36.27155 | -120.29817 | 37042 ft | 467 kts | 161° |
| 2026-05-06 00:46 | 36.20840 | -120.27818 | 37031 ft | 468 kts | 161° |
| 2026-05-06 00:47 | 36.14539 | -120.25834 | 37034 ft | 467 kts | 161° |
| 2026-05-06 00:47 | 36.10394 | -120.24528 | 37042 ft | 466 kts | 161° |
| 2026-05-06 00:48 | 36.09519 | -120.24253 | 37044 ft | 466 kts | 161° |
| 2026-05-06 00:48 | 36.03248 | -120.22280 | 37044 ft | 464 kts | 161° |
| 2026-05-06 00:49 | 35.96992 | -120.20317 | 37041 ft | 463 kts | 161° |
| 2026-05-06 00:49 | 35.90757 | -120.18352 | 37047 ft | 462 kts | 161° |
| 2026-05-06 00:50 | 35.87639 | -120.17376 | 37039 ft | 462 kts | 161° |